Aviation Digital Data Service (ADDS)

Output produced by TAFs form (0634 UTC 15 December 2017)
found at http://www.aviationweather.gov/adds/tafs/
 
KAHN 150551Z AUTO 24004KT 10SM CLR 06/02 A2998 RMK AO2 SLP153 T00610022 10083 20056 50001
KAHN 150520Z 1506/1606 26003KT P6SM SCT150 BKN250 
     TEMPO 1506/1509 BKN150 
     FM151500 28010G20KT P6SM SCT180 BKN220 
     FM160000 29007KT P6SM BKN250